Air Navigation Services of Czech Republic
Airport: LKPD Updated:  20.09.2021 16:56:27  UTC
 METAR LKPD 20.09. 17:00 ...
METAR LKPD 201700Z 32003KT CAVOK 13/06 Q1021 RMK BLACK=
 TAF LKPD 20.09. 11:00 AAA
TAF AMD LKPD 201300Z 2012/2112 CNL=